»·PEaware :: N347CD KAVX-KSAN

N347CD :: KAVX-KSAN

FLIGHT INFORMATION

Flight Status: Arrived
Operator: Privately registered:
United States
More flights under this callsign
Pilot: Daniel C. (3642)
Aircraft: BEECH AIRCRAFT BONANZA
(BE36)
More flights by this aircraft type
Origin: KAVX Catalina
United States
Destination: KSAN San Diego Intl-Lindbergh
United States
More flights between these airports :: More routes between these airports
Route: SXC V208 OCN V23 MZB
File this flight plan on PilotEdge
Remarks: +CW / LYNDI RNAV GPS RWY27 KSAN
Altitude:
(Current/Filed)
5,000ft
Speed:
(Current/Filed)
165kts
Departed: 08-Jan-20 02:36 PM
Arrived: 08-Jan-20 03:28 PM
Distance/Time
Traveled:
74nm/0:52
Distance/Time
To Go:
Arrived

Flight Plot

Page will automatically refresh every two minutes.


Map Options




Map Legend


Flown Route
Filed Route
Departure Airport
Arrival Airport
Navaid (VOR, NDB)
Fix

Horizontal Profiles

Position Reports

Time Latitude Longitude Heading Altitude Ground
Speed
08-Jan-20 14:26 33.403430 -118.415453 63 1606ft 0kts
08-Jan-20 14:27 33.403430 -118.415453 63 1606ft 0kts
08-Jan-20 14:28 33.403430 -118.415453 63 1606ft 0kts
08-Jan-20 14:29 33.403430 -118.415453 63 1606ft 0kts
08-Jan-20 14:30 33.405362 -118.414441 56 1606ft 14kts
08-Jan-20 14:31 33.406992 -118.411696 54 1606ft 0kts
08-Jan-20 14:32 33.407195 -118.411382 23 1606ft 0kts
08-Jan-20 14:33 33.407195 -118.411382 23 1606ft 0kts
08-Jan-20 14:34 33.407195 -118.411382 23 1606ft 0kts
08-Jan-20 14:35 33.404755 -118.416168 234 1622ft 78kts
08-Jan-20 14:36 33.386621 -118.421597 151 2442ft 88kts
08-Jan-20 14:37 33.373009 -118.400696 100 3173ft 97kts
08-Jan-20 14:38 33.368080 -118.366106 98 3811ft 123kts
08-Jan-20 14:39 33.362284 -118.321842 98 4641ft 142kts
08-Jan-20 14:40 33.355894 -118.272863 98 4939ft 160kts
08-Jan-20 14:41 33.348783 -118.218734 98 4936ft 167kts
08-Jan-20 14:42 33.341512 -118.163555 98 4936ft 168kts
08-Jan-20 14:44 33.334236 -118.108483 98 4963ft 167kts
08-Jan-20 14:45 33.326923 -118.053325 98 4963ft 168kts
08-Jan-20 14:46 33.319675 -117.998852 98 4963ft 168kts
08-Jan-20 14:47 33.312302 -117.943626 98 4963ft 168kts
08-Jan-20 14:48 33.304955 -117.888788 99 4963ft 167kts
08-Jan-20 14:49 33.297539 -117.833639 99 4963ft 168kts
08-Jan-20 14:50 33.290202 -117.779246 99 4963ft 168kts
08-Jan-20 14:51 33.282694 -117.724218 99 4963ft 167kts
08-Jan-20 14:52 33.275227 -117.669408 99 4963ft 167kts
08-Jan-20 14:53 33.267763 -117.614674 99 4937ft 168kts
08-Jan-20 14:54 33.260257 -117.559798 99 4935ft 167kts
08-Jan-20 14:55 33.252752 -117.505116 99 4935ft 167kts
08-Jan-20 14:56 33.245200 -117.450283 99 4935ft 167kts
08-Jan-20 14:57 33.221671 -117.409355 161 4942ft 167kts
08-Jan-20 14:58 33.177695 -117.391132 160 4935ft 168kts
08-Jan-20 14:59 33.133677 -117.372614 160 4936ft 168kts
08-Jan-20 15:00 33.089624 -117.354087 160 4936ft 168kts
08-Jan-20 15:01 33.045451 -117.335528 160 4935ft 168kts
08-Jan-20 15:02 33.001244 -117.316975 160 4935ft 169kts
08-Jan-20 15:03 32.956786 -117.298337 160 4935ft 169kts
08-Jan-20 15:03 32.919777 -117.282837 160 4935ft 170kts
08-Jan-20 15:05 32.867732 -117.261063 160 4936ft 171kts
08-Jan-20 15:06 32.822741 -117.242261 160 4935ft 171kts
08-Jan-20 15:06 32.785394 -117.226333 151 4923ft 172kts
08-Jan-20 15:08 32.769404 -117.166957 102 4934ft 160kts
08-Jan-20 15:09 32.760024 -117.115656 102 4934ft 158kts
08-Jan-20 15:09 32.752267 -117.073195 102 4926ft 158kts
08-Jan-20 15:10 32.742901 -117.021901 102 4926ft 159kts
08-Jan-20 15:12 32.732301 -116.963725 102 4923ft 145kts
08-Jan-20 15:12 32.725319 -116.925383 102 4924ft 139kts
08-Jan-20 15:13 32.717494 -116.882383 102 4925ft 129kts
08-Jan-20 15:14 32.709971 -116.841053 102 4926ft 126kts
08-Jan-20 15:15 32.684855 -116.839480 252 4013ft 165kts
08-Jan-20 15:16 32.685275 -116.881002 283 4499ft 109kts
08-Jan-20 15:17 32.682561 -116.919569 243 4413ft 120kts
08-Jan-20 15:18 32.669637 -116.952526 265 4576ft 115kts
08-Jan-20 15:19 32.687294 -116.987086 302 4002ft 140kts
08-Jan-20 15:20 32.692719 -117.025798 279 2471ft 90kts
08-Jan-20 15:21 32.703889 -117.048355 297 1772ft 82kts
08-Jan-20 15:22 32.704924 -117.073965 274 1289ft 76kts
08-Jan-20 15:23 32.710114 -117.097963 287 1127ft 73kts
08-Jan-20 15:24 32.717657 -117.122446 287 1242ft 86kts
08-Jan-20 15:25 32.724288 -117.151399 285 627ft 87kts
08-Jan-20 15:26 32.730314 -117.176264 285 164ft 78kts
08-Jan-20 15:27 32.733908 -117.188077 9 20ft 0kts
08-Jan-20 15:28 32.733948 -117.188065 17 20ft 1kts
08-Jan-20 15:29 32.734504 -117.186625 100 21ft 0kts

Navigation Log

Ident Type
Flight plan parsing failed, navigation log unavailable